createdAt,value
2023-07-02T00:00:09.183Z,18.37
2023-07-02T00:02:37.542Z,18.31
2023-07-02T00:05:04.658Z,18.32
2023-07-02T00:07:31.308Z,18.35
2023-07-02T00:09:58.193Z,18.28
2023-07-02T00:12:24.897Z,18.27
2023-07-02T00:14:54.291Z,18.25
2023-07-02T00:17:21.835Z,18.28
2023-07-02T00:19:53.237Z,18.19
2023-07-02T00:22:20.584Z,18.23
2023-07-02T00:24:47.319Z,18.27
2023-07-02T00:27:14.037Z,18.16
2023-07-02T00:29:40.633Z,18.17
2023-07-02T00:32:07.409Z,18.20
2023-07-02T00:34:34.005Z,18.19
2023-07-02T00:37:00.628Z,18.22
2023-07-02T00:39:27.267Z,18.15
2023-07-02T00:41:53.881Z,18.13
2023-07-02T00:44:21.963Z,18.14
2023-07-02T00:46:51.772Z,18.18
2023-07-02T00:49:18.516Z,18.13
2023-07-02T00:51:45.121Z,18.14
2023-07-02T00:54:11.735Z,18.13
2023-07-02T00:56:38.400Z,18.09
2023-07-02T00:59:05.038Z,18.08
2023-07-02T01:01:34.711Z,18.11
2023-07-02T01:04:04.079Z,18.04
2023-07-02T01:06:35.796Z,18.00
2023-07-02T01:09:06.777Z,17.98
2023-07-02T01:11:47.839Z,17.98
2023-07-02T01:14:35.100Z,18.03
2023-07-02T01:17:04.976Z,17.94
2023-07-02T01:19:35.017Z,17.81
2023-07-02T01:22:02.970Z,17.85
2023-07-02T01:24:29.800Z,17.84
2023-07-02T01:26:57.495Z,17.70
2023-07-02T01:29:24.135Z,17.62
2023-07-02T01:31:50.823Z,17.66
2023-07-02T01:34:17.474Z,17.67
2023-07-02T01:36:44.089Z,17.67
2023-07-02T01:39:10.720Z,17.62
2023-07-02T01:41:54.632Z,17.68
2023-07-02T01:44:22.894Z,17.68
2023-07-02T01:46:52.539Z,17.77
2023-07-02T01:49:20.638Z,17.72
2023-07-02T01:51:53.595Z,17.78
2023-07-02T01:54:21.211Z,17.68
2023-07-02T01:56:48.181Z,17.78
2023-07-02T01:59:15.595Z,17.74
2023-07-02T02:01:42.632Z,17.74
2023-07-02T02:04:11.068Z,17.73
2023-07-02T02:06:38.645Z,17.80
2023-07-02T02:09:06.325Z,17.71
2023-07-02T02:11:34.440Z,17.75
2023-07-02T02:14:02.555Z,17.71
2023-07-02T02:16:30.018Z,17.67
2023-07-02T02:18:56.800Z,17.69
2023-07-02T02:21:23.788Z,17.66
2023-07-02T02:23:50.427Z,17.62
2023-07-02T02:26:17.176Z,17.61
2023-07-02T02:28:44.288Z,17.57
2023-07-02T02:31:11.106Z,17.63
2023-07-02T02:33:37.862Z,17.65
2023-07-02T02:36:04.736Z,17.69
2023-07-02T02:38:31.494Z,17.57
2023-07-02T02:40:58.145Z,17.59
2023-07-02T02:43:25.008Z,17.60
2023-07-02T02:45:51.619Z,17.57
2023-07-02T02:48:18.254Z,17.60
2023-07-02T02:50:44.887Z,17.59
2023-07-02T02:53:11.961Z,17.57
2023-07-02T02:55:38.580Z,17.58
2023-07-02T02:58:05.337Z,17.59
2023-07-02T03:00:32.029Z,17.53
2023-07-02T03:02:59.979Z,17.49
2023-07-02T03:05:27.338Z,17.46
2023-07-02T03:07:54.211Z,17.45
2023-07-02T03:10:21.014Z,17.50
2023-07-02T03:12:48.909Z,17.46
2023-07-02T03:15:15.687Z,17.44
2023-07-02T03:17:42.342Z,17.45
2023-07-02T03:20:09.549Z,17.34
2023-07-02T03:22:36.149Z,17.40
2023-07-02T03:25:02.998Z,17.35
2023-07-02T03:27:29.665Z,17.45
2023-07-02T03:29:56.926Z,17.48
2023-07-02T03:32:23.664Z,17.37
2023-07-02T03:34:50.334Z,17.46
2023-07-02T03:37:16.965Z,17.43
2023-07-02T03:39:43.586Z,17.44
2023-07-02T03:42:10.231Z,17.43
2023-07-02T03:44:36.839Z,17.35
2023-07-02T03:47:03.524Z,17.31
2023-07-02T03:49:32.623Z,17.40
2023-07-02T03:51:59.293Z,17.41
2023-07-02T03:54:25.899Z,17.49
2023-07-02T03:56:52.525Z,17.42
2023-07-02T03:59:20.397Z,17.42
2023-07-02T04:01:47.018Z,17.44
2023-07-02T04:04:13.867Z,17.54
2023-07-02T04:06:40.511Z,17.39
2023-07-02T04:09:07.108Z,17.47
2023-07-02T04:11:33.861Z,17.51
2023-07-02T04:14:00.446Z,17.54
2023-07-02T04:16:27.111Z,17.54
2023-07-02T04:18:53.722Z,17.56
2023-07-02T04:21:20.309Z,17.52
2023-07-02T04:23:46.913Z,17.54
2023-07-02T04:26:49.935Z,17.45
2023-07-02T04:29:00.369Z,17.54
2023-07-02T04:31:27.492Z,17.50
2023-07-02T04:33:54.163Z,17.45
2023-07-02T04:36:20.908Z,17.47
2023-07-02T04:38:47.576Z,17.53
2023-07-02T04:41:14.188Z,17.58
2023-07-02T04:43:40.816Z,17.51
2023-07-02T04:46:08.975Z,17.51
2023-07-02T04:48:35.979Z,17.52
2023-07-02T04:51:02.626Z,17.54
2023-07-02T04:53:29.293Z,17.54
2023-07-02T04:55:57.972Z,17.60
2023-07-02T04:58:24.699Z,17.53
2023-07-02T05:00:51.706Z,17.56
2023-07-02T05:03:18.488Z,17.64
2023-07-02T05:05:45.203Z,17.70
2023-07-02T05:08:11.915Z,17.69
2023-07-02T05:10:38.553Z,17.69
2023-07-02T05:13:05.136Z,17.54
2023-07-02T05:15:31.757Z,17.57
2023-07-02T05:17:58.548Z,17.61
2023-07-02T05:20:25.369Z,17.62
2023-07-02T05:22:51.994Z,17.66
2023-07-02T05:25:18.712Z,17.79
2023-07-02T05:27:45.319Z,17.65
2023-07-02T05:30:12.487Z,17.78
2023-07-02T05:32:40.733Z,17.76
2023-07-02T05:35:07.707Z,17.89
2023-07-02T05:37:34.408Z,17.92
2023-07-02T05:40:01.005Z,18.01
2023-07-02T05:42:27.601Z,17.98
2023-07-02T05:44:54.200Z,18.00
2023-07-02T05:47:20.828Z,17.93
2023-07-02T05:49:47.652Z,18.00
2023-07-02T05:52:14.356Z,17.99
2023-07-02T05:54:42.401Z,18.03
2023-07-02T05:57:09.193Z,18.14
2023-07-02T05:59:36.028Z,18.23
2023-07-02T06:02:02.720Z,18.28
2023-07-02T06:04:29.478Z,18.30
2023-07-02T06:06:56.216Z,18.36
2023-07-02T06:09:22.911Z,18.34
2023-07-02T06:11:49.617Z,18.34
2023-07-02T06:14:16.305Z,18.36
2023-07-02T06:16:43.648Z,18.35
2023-07-02T06:19:10.634Z,18.41
2023-07-02T06:21:38.074Z,18.29
2023-07-02T06:24:05.146Z,18.19
2023-07-02T06:26:33.515Z,18.26
2023-07-02T06:29:00.436Z,18.39
2023-07-02T06:31:27.638Z,18.47
2023-07-02T06:33:54.520Z,18.64
2023-07-02T06:36:21.396Z,18.71
2023-07-02T06:38:48.080Z,18.84
2023-07-02T06:41:15.602Z,18.84
2023-07-02T06:43:45.445Z,18.76
2023-07-02T06:46:13.280Z,18.81
2023-07-02T06:48:40.151Z,18.81
2023-07-02T06:51:08.283Z,18.81
2023-07-02T06:53:35.396Z,18.80
2023-07-02T06:56:02.096Z,18.83
2023-07-02T06:58:28.797Z,18.88
2023-07-02T07:00:57.973Z,18.98
2023-07-02T07:03:25.277Z,19.07
2023-07-02T07:05:51.925Z,18.90
2023-07-02T07:08:18.577Z,18.98
2023-07-02T07:10:46.733Z,18.95
2023-07-02T07:13:13.936Z,18.99
2023-07-02T07:15:40.644Z,19.14
2023-07-02T07:18:10.155Z,19.34
2023-07-02T07:20:37.271Z,19.45
2023-07-02T07:23:04.739Z,19.57
2023-07-02T07:25:31.572Z,19.58
2023-07-02T07:28:00.685Z,19.60
2023-07-02T07:30:27.379Z,19.52
2023-07-02T07:32:54.566Z,19.37
2023-07-02T07:35:23.065Z,19.34
2023-07-02T07:37:50.811Z,19.37
2023-07-02T07:40:17.757Z,19.42
2023-07-02T07:42:44.576Z,19.47
2023-07-02T07:45:12.648Z,19.46
2023-07-02T07:47:50.383Z,19.50
2023-07-02T07:50:17.213Z,19.53
2023-07-02T07:52:44.438Z,19.54
2023-07-02T07:55:11.226Z,19.51
2023-07-02T07:57:38.735Z,19.65
2023-07-02T08:00:09.273Z,19.67
2023-07-02T08:02:36.062Z,19.57
2023-07-02T08:05:04.327Z,19.53
2023-07-02T08:07:32.917Z,19.64
2023-07-02T08:10:00.250Z,19.65
2023-07-02T08:12:30.734Z,19.62
2023-07-02T08:14:57.876Z,19.60
2023-07-02T08:17:24.659Z,19.54
2023-07-02T08:19:51.436Z,19.68
2023-07-02T08:22:18.153Z,19.88
2023-07-02T08:24:44.870Z,19.88
2023-07-02T08:27:15.040Z,19.93
2023-07-02T08:29:42.088Z,20.14
2023-07-02T08:32:09.014Z,20.01
2023-07-02T08:34:35.741Z,19.98
2023-07-02T08:37:02.506Z,19.69
2023-07-02T08:39:29.251Z,19.38
2023-07-02T08:41:56.064Z,19.39
2023-07-02T08:44:23.598Z,19.46
2023-07-02T08:46:52.206Z,19.45
2023-07-02T08:49:19.354Z,19.51
2023-07-02T08:51:47.328Z,19.54
2023-07-02T08:54:15.510Z,19.65
2023-07-02T08:56:43.086Z,19.90
2023-07-02T08:59:12.033Z,19.96
2023-07-02T09:01:53.316Z,20.15
2023-07-02T09:04:20.676Z,20.26
2023-07-02T09:06:52.445Z,20.17
2023-07-02T09:09:19.361Z,20.27
2023-07-02T09:11:52.262Z,20.49
2023-07-02T09:14:29.728Z,20.62
2023-07-02T09:17:10.583Z,20.81
2023-07-02T09:19:38.090Z,20.82
2023-07-02T09:22:07.020Z,20.57
2023-07-02T09:24:33.734Z,20.47
2023-07-02T09:27:02.052Z,20.21
2023-07-02T09:29:31.005Z,20.29
2023-07-02T09:32:10.281Z,20.17
2023-07-02T09:34:40.005Z,20.20
2023-07-02T09:37:07.091Z,20.25
2023-07-02T09:39:35.857Z,20.27
2023-07-02T09:42:06.396Z,20.43
2023-07-02T09:44:36.756Z,20.48
2023-07-02T09:47:08.467Z,20.34
2023-07-02T09:49:40.199Z,20.26
2023-07-02T09:52:10.125Z,20.35
2023-07-02T09:54:37.806Z,20.15
2023-07-02T09:57:05.447Z,20.10
2023-07-02T09:59:32.109Z,20.12
2023-07-02T10:01:59.497Z,20.12
2023-07-02T10:04:26.640Z,20.28
2023-07-02T10:06:58.596Z,20.28
2023-07-02T10:09:43.170Z,20.44
2023-07-02T10:12:26.884Z,20.55
2023-07-02T10:14:56.750Z,20.67
2023-07-02T10:17:33.029Z,20.62
2023-07-02T10:20:02.032Z,20.73
2023-07-02T10:22:29.194Z,20.75
2023-07-02T10:25:01.944Z,20.72
2023-07-02T10:27:42.648Z,20.68
2023-07-02T10:30:11.057Z,20.81
2023-07-02T10:32:41.957Z,20.73
2023-07-02T10:35:18.979Z,20.72
2023-07-02T10:37:46.453Z,20.64
2023-07-02T10:40:13.856Z,20.64
2023-07-02T10:42:48.227Z,20.49
2023-07-02T10:45:15.299Z,20.54
2023-07-02T10:47:44.345Z,20.63
2023-07-02T10:50:17.357Z,20.76
2023-07-02T10:52:47.612Z,20.88
2023-07-02T10:55:21.423Z,20.94
2023-07-02T10:57:52.755Z,20.76
2023-07-02T11:00:19.949Z,20.64
2023-07-02T11:02:46.884Z,20.69
2023-07-02T11:05:14.114Z,20.60
2023-07-02T11:07:43.825Z,20.72
2023-07-02T11:10:13.039Z,20.75
2023-07-02T11:12:39.938Z,20.80
2023-07-02T11:15:10.431Z,21.05
2023-07-02T11:17:37.387Z,20.86
2023-07-02T11:20:06.564Z,20.67
2023-07-02T11:22:38.803Z,20.63
2023-07-02T11:25:21.262Z,20.67
2023-07-02T11:35:53.786Z,21.49
2023-07-02T11:38:20.448Z,21.45
2023-07-02T11:40:49.672Z,21.44
2023-07-02T11:43:17.192Z,21.27
2023-07-02T11:45:44.748Z,21.29
2023-07-02T11:48:11.477Z,21.31
2023-07-02T11:50:38.936Z,21.36
2023-07-02T11:53:06.007Z,21.37
2023-07-02T11:55:32.844Z,21.14
2023-07-02T11:57:59.632Z,21.10
2023-07-02T12:00:27.196Z,21.03
2023-07-02T12:02:54.070Z,21.00
2023-07-02T12:05:23.168Z,21.12
2023-07-02T12:07:49.996Z,21.02
2023-07-02T12:10:16.784Z,21.17
2023-07-02T12:12:43.597Z,21.12
2023-07-02T12:15:13.085Z,21.14
2023-07-02T12:17:39.831Z,21.32
2023-07-02T12:20:07.006Z,21.42
2023-07-02T12:22:33.821Z,21.40
2023-07-02T12:25:00.836Z,21.28
2023-07-02T12:27:28.465Z,21.26
2023-07-02T12:29:55.236Z,21.37
2023-07-02T12:32:22.156Z,21.31
2023-07-02T12:34:49.070Z,21.38
2023-07-02T12:37:19.301Z,21.46
2023-07-02T12:39:46.037Z,21.61
2023-07-02T12:42:12.772Z,21.51
2023-07-02T12:44:39.539Z,21.57
2023-07-02T12:47:06.645Z,21.60
2023-07-02T12:49:33.391Z,21.44
2023-07-02T12:52:00.153Z,21.44
2023-07-02T12:54:27.811Z,21.51
2023-07-02T12:56:55.002Z,21.78
2023-07-02T12:59:21.795Z,21.84
2023-07-02T13:01:49.268Z,21.80
2023-07-02T13:04:16.691Z,21.62
2023-07-02T13:06:46.036Z,21.58
2023-07-02T13:09:12.873Z,21.74
2023-07-02T13:11:39.712Z,21.78
2023-07-02T13:14:06.475Z,21.75
2023-07-02T13:16:33.211Z,21.70
2023-07-02T13:19:02.815Z,21.54
2023-07-02T13:21:30.168Z,21.52
2023-07-02T13:23:57.091Z,21.48
2023-07-02T13:26:23.882Z,21.38
2023-07-02T13:28:50.673Z,21.50
2023-07-02T13:31:17.699Z,21.62
2023-07-02T13:33:44.575Z,21.36
2023-07-02T13:36:11.798Z,21.38
2023-07-02T13:38:38.672Z,21.37
2023-07-02T13:41:05.426Z,21.33
2023-07-02T13:43:34.085Z,21.41
2023-07-02T13:46:00.929Z,21.46
2023-07-02T13:48:28.910Z,21.40
2023-07-02T13:50:55.887Z,21.50
2023-07-02T13:53:22.640Z,21.51
2023-07-02T13:55:49.788Z,21.55
2023-07-02T13:58:28.165Z,21.72
2023-07-02T14:00:56.533Z,21.84
2023-07-02T14:03:23.436Z,21.98
2023-07-02T14:05:51.848Z,22.16
2023-07-02T14:08:19.016Z,22.21
2023-07-02T14:10:45.841Z,22.18
2023-07-02T14:13:12.716Z,21.93
2023-07-02T14:15:39.497Z,21.81
2023-07-02T14:18:07.066Z,21.75
2023-07-02T14:20:33.852Z,21.72
2023-07-02T14:23:00.669Z,21.58
2023-07-02T14:25:40.730Z,21.74
2023-07-02T14:28:14.125Z,21.95
2023-07-02T14:30:40.937Z,22.05
2023-07-02T14:33:07.841Z,21.96
2023-07-02T14:35:35.770Z,21.80
2023-07-02T14:38:02.562Z,21.69
2023-07-02T14:40:29.504Z,21.66
2023-07-02T14:42:56.296Z,21.66
2023-07-02T14:45:23.025Z,21.83
2023-07-02T14:47:49.782Z,22.02
2023-07-02T14:50:19.364Z,22.14
2023-07-02T14:52:46.506Z,22.10
2023-07-02T14:55:13.444Z,22.23
2023-07-02T14:57:40.170Z,22.20
2023-07-02T15:00:07.670Z,22.13
2023-07-02T15:02:34.480Z,22.06
2023-07-02T15:05:01.561Z,22.24
2023-07-02T15:07:28.305Z,22.16
2023-07-02T15:09:55.049Z,22.20
2023-07-02T15:12:21.759Z,22.20
2023-07-02T15:14:48.508Z,22.16
2023-07-02T15:17:17.877Z,22.19
2023-07-02T15:19:44.673Z,22.27
2023-07-02T15:22:11.383Z,22.38
2023-07-02T15:24:38.137Z,22.39
2023-07-02T15:27:05.263Z,22.40
2023-07-02T15:29:32.007Z,22.47
2023-07-02T15:34:40.700Z,22.45
2023-07-02T15:37:10.572Z,22.38
2023-07-02T15:39:37.408Z,22.20
2023-07-02T15:42:04.480Z,22.06
2023-07-02T15:47:13.816Z,22.12
2023-07-02T15:49:40.697Z,22.11
2023-07-02T15:52:08.373Z,22.23
2023-07-02T15:54:35.229Z,22.31
2023-07-02T15:57:01.887Z,22.32
2023-07-02T15:59:28.673Z,22.19
2023-07-02T16:01:55.301Z,22.10
2023-07-02T16:04:22.318Z,22.14
2023-07-02T16:06:49.625Z,22.16
2023-07-02T16:09:16.656Z,22.20
2023-07-02T16:11:43.489Z,22.23
2023-07-02T16:14:13.017Z,22.21
2023-07-02T16:16:44.523Z,22.12
2023-07-02T16:19:14.144Z,22.23
2023-07-02T16:21:41.801Z,22.39
2023-07-02T16:24:31.152Z,22.56
2023-07-02T16:26:58.772Z,22.57
2023-07-02T16:29:28.436Z,22.44
2023-07-02T16:31:57.158Z,22.43
2023-07-02T16:34:25.053Z,22.29
2023-07-02T16:36:52.417Z,22.38
2023-07-02T16:39:21.887Z,22.33
2023-07-02T16:41:50.214Z,22.30
2023-07-02T16:44:28.406Z,22.38
2023-07-02T16:46:56.667Z,22.39
2023-07-02T16:49:27.923Z,22.34
2023-07-02T16:51:56.119Z,22.37
2023-07-02T16:54:24.619Z,22.40
2023-07-02T16:57:09.496Z,22.46
2023-07-02T16:59:38.851Z,22.37
2023-07-02T17:02:09.111Z,22.30
2023-07-02T17:04:35.861Z,22.32
2023-07-02T17:07:03.090Z,22.24
2023-07-02T17:09:35.744Z,22.16
2023-07-02T17:12:05.160Z,22.10
2023-07-02T17:14:34.783Z,22.10
2023-07-02T17:17:05.709Z,22.16
2023-07-02T17:19:38.183Z,22.25
2023-07-02T17:22:06.859Z,22.21
2023-07-02T17:24:39.570Z,22.36
2023-07-02T17:27:07.902Z,22.34
2023-07-02T17:29:35.001Z,22.27
2023-07-02T17:32:04.815Z,22.14
2023-07-02T17:34:33.384Z,22.11
2023-07-02T17:37:02.581Z,22.04
2023-07-02T17:39:31.438Z,22.04
2023-07-02T17:41:59.424Z,22.07
2023-07-02T17:44:30.073Z,22.15
2023-07-02T17:46:59.879Z,22.22
2023-07-02T17:49:29.467Z,22.23
2023-07-02T17:51:56.364Z,22.13
2023-07-02T17:54:24.003Z,22.10
2023-07-02T17:56:52.624Z,22.12
2023-07-02T17:59:20.969Z,22.11
2023-07-02T18:01:53.457Z,22.09
2023-07-02T18:04:21.816Z,22.06
2023-07-02T18:06:48.625Z,21.86
2023-07-02T18:09:17.652Z,21.91
2023-07-02T18:11:44.438Z,21.99
2023-07-02T18:14:11.153Z,21.95
2023-07-02T18:16:37.929Z,21.77
2023-07-02T18:19:04.692Z,21.72
2023-07-02T18:21:31.381Z,21.61
2023-07-02T18:23:59.643Z,21.57
2023-07-02T18:26:26.472Z,21.52
2023-07-02T18:28:53.271Z,21.46
2023-07-02T18:31:20.709Z,21.52
2023-07-02T18:33:47.587Z,21.51
2023-07-02T18:36:17.624Z,21.50
2023-07-02T18:38:44.344Z,21.49
2023-07-02T18:41:12.496Z,21.34
2023-07-02T18:43:39.579Z,21.34
2023-07-02T18:46:07.966Z,21.31
2023-07-02T18:48:35.963Z,21.30
2023-07-02T18:51:07.331Z,21.33
2023-07-02T18:53:35.434Z,21.32
2023-07-02T18:56:07.176Z,21.36
2023-07-02T18:58:36.817Z,21.30
2023-07-02T19:01:17.911Z,21.28
2023-07-02T19:03:46.781Z,21.23
2023-07-02T19:06:13.757Z,21.14
2023-07-02T19:08:40.597Z,21.20
2023-07-02T19:11:09.083Z,21.24
2023-07-02T19:13:36.233Z,21.25
2023-07-02T19:16:03.133Z,21.23
2023-07-02T19:18:30.964Z,21.12
2023-07-02T19:21:01.488Z,21.08
2023-07-02T19:23:32.396Z,21.03
2023-07-02T19:25:59.295Z,20.98
2023-07-02T19:28:26.089Z,20.98
2023-07-02T19:31:05.342Z,20.99
2023-07-02T19:33:32.222Z,20.95
2023-07-02T19:35:59.112Z,20.92
2023-07-02T19:38:27.064Z,20.90
2023-07-02T19:40:58.160Z,20.93
2023-07-02T19:43:26.135Z,20.87
2023-07-02T19:45:53.150Z,20.89
2023-07-02T19:48:20.806Z,20.91
2023-07-02T19:50:47.590Z,20.86
2023-07-02T19:53:17.397Z,20.83
2023-07-02T19:55:44.963Z,20.82
2023-07-02T19:58:11.781Z,20.78
2023-07-02T20:00:38.504Z,20.76
2023-07-02T20:03:05.361Z,20.77
2023-07-02T20:05:34.153Z,20.74
2023-07-02T20:08:01.601Z,20.66
2023-07-02T20:10:49.911Z,20.63
2023-07-02T20:13:26.513Z,20.49
2023-07-02T20:15:58.004Z,20.54
2023-07-02T20:18:28.462Z,20.50
2023-07-02T20:20:58.337Z,20.32
2023-07-02T20:23:27.661Z,20.23
2023-07-02T20:25:54.682Z,20.24
2023-07-02T20:28:23.877Z,20.09
2023-07-02T20:30:50.607Z,20.15
2023-07-02T20:33:17.425Z,20.14
2023-07-02T20:35:45.215Z,20.05
2023-07-02T20:38:13.907Z,20.03
2023-07-02T20:40:40.746Z,19.91
2023-07-02T20:43:15.623Z,20.00
2023-07-02T20:45:44.927Z,20.05
2023-07-02T20:48:13.574Z,19.98
2023-07-02T20:50:40.234Z,19.90
2023-07-02T20:53:06.977Z,19.89
2023-07-02T20:55:33.781Z,19.82
2023-07-02T20:58:00.619Z,19.90
2023-07-02T21:00:27.470Z,19.96
2023-07-02T21:02:54.630Z,19.89
2023-07-02T21:05:21.491Z,19.95
2023-07-02T21:07:49.976Z,19.93
2023-07-02T21:10:16.938Z,19.93
2023-07-02T21:12:43.735Z,19.87
2023-07-02T21:15:10.843Z,19.83
2023-07-02T21:17:37.636Z,19.80
2023-07-02T21:20:05.444Z,19.82
2023-07-02T21:22:33.334Z,19.83
2023-07-02T21:25:00.299Z,19.77
2023-07-02T21:27:27.059Z,19.80
2023-07-02T21:29:55.184Z,19.85
2023-07-02T21:32:22.218Z,19.83
2023-07-02T21:34:48.980Z,19.90
2023-07-02T21:37:15.832Z,19.84
2023-07-02T21:39:42.957Z,19.78
2023-07-02T21:42:09.714Z,19.81
2023-07-02T21:44:36.410Z,19.78
2023-07-02T21:47:03.183Z,19.76
2023-07-02T21:49:32.005Z,19.75
2023-07-02T21:51:58.758Z,19.78
2023-07-02T21:54:25.752Z,19.82
2023-07-02T21:56:52.484Z,19.70
2023-07-02T21:59:26.688Z,19.71
2023-07-02T22:01:54.447Z,19.74
2023-07-02T22:04:21.610Z,19.67
2023-07-02T22:06:48.420Z,19.67
2023-07-02T22:09:15.135Z,19.59
2023-07-02T22:11:41.852Z,19.60
2023-07-02T22:14:08.524Z,19.56
2023-07-02T22:16:35.216Z,19.52
2023-07-02T22:19:03.499Z,19.54
2023-07-02T22:21:30.245Z,19.32
2023-07-02T22:23:57.299Z,19.25
2023-07-02T22:26:23.961Z,19.25
2023-07-02T22:28:50.755Z,19.20
2023-07-02T22:31:17.563Z,19.05
2023-07-02T22:33:44.468Z,18.97
2023-07-02T22:36:11.338Z,18.92
2023-07-02T22:38:38.052Z,18.89
2023-07-02T22:41:04.769Z,18.80
2023-07-02T22:43:31.552Z,18.80
2023-07-02T22:45:58.241Z,18.72
2023-07-02T22:48:24.895Z,18.72
2023-07-02T22:50:51.601Z,18.63
2023-07-02T22:53:18.272Z,18.69
2023-07-02T22:55:45.089Z,18.64
2023-07-02T22:58:11.968Z,18.62
2023-07-02T23:00:39.355Z,18.65
2023-07-02T23:03:06.251Z,18.57
2023-07-02T23:05:34.033Z,18.44
2023-07-02T23:08:00.825Z,18.49
2023-07-02T23:10:27.532Z,18.50
2023-07-02T23:12:54.239Z,18.50
2023-07-02T23:15:21.509Z,18.49
2023-07-02T23:17:54.056Z,18.49
2023-07-02T23:20:21.419Z,18.50
2023-07-02T23:22:49.778Z,18.54
2023-07-02T23:25:21.779Z,18.49
2023-07-02T23:27:50.341Z,18.42
2023-07-02T23:30:19.273Z,18.27
2023-07-02T23:32:47.693Z,18.24
2023-07-02T23:35:16.254Z,18.30
2023-07-02T23:37:46.512Z,18.24
2023-07-02T23:40:17.501Z,18.26
2023-07-02T23:42:45.494Z,18.29
2023-07-02T23:45:14.369Z,18.27
2023-07-02T23:47:42.318Z,18.21
2023-07-02T23:50:12.079Z,18.15
2023-07-02T23:52:39.478Z,18.19
2023-07-02T23:55:08.541Z,18.06
2023-07-02T23:57:38.662Z,18.08
